Weather at Mfuwe Airport

Public forecast

Using degrees Celsius for public forecast. Weather courtesy of forecast.io.

Closest aviation weather report (METAR) to Mfuwe Airport

Report is more than 2 hours old.

Closest report is Lilongwe International Airport, 112.3 nm (207.9 km) ESE.

2024/06/21 14:00 (retrieved 3 hours ago)

FWKI 211400Z 10010KT 9999 FEW036 22/08 Q1023 NOSIG

Aviation forecast (TAF) for Mfuwe Airport

2024/06/21 12:00 (retrieved 5 hours ago)

TAF FLMF 211000Z 2112/2218 16010G15KT CAVOK